sensor_id;sensor_type;location;lat;lon;timestamp;P1;durP1;ratioP1;P2;durP2;ratioP2
6537;SDS011;3302;52.508;13.454;2023-05-29T00:00:14;6.53;;;3.60;;
6537;SDS011;3302;52.508;13.454;2023-05-29T00:02:43;7.00;;;3.37;;
6537;SDS011;3302;52.508;13.454;2023-05-29T00:05:10;6.23;;;3.80;;
6537;SDS011;3302;52.508;13.454;2023-05-29T00:07:38;6.93;;;3.37;;
6537;SDS011;3302;52.508;13.454;2023-05-29T00:10:07;8.30;;;4.90;;
6537;SDS011;3302;52.508;13.454;2023-05-29T00:12:35;5.60;;;3.60;;
6537;SDS011;3302;52.508;13.454;2023-05-29T00:15:01;5.23;;;3.57;;
6537;SDS011;3302;52.508;13.454;2023-05-29T00:17:29;9.23;;;5.10;;
6537;SDS011;3302;52.508;13.454;2023-05-29T00:20:00;6.37;;;3.97;;
6537;SDS011;3302;52.508;13.454;2023-05-29T00:22:30;7.10;;;4.10;;
6537;SDS011;3302;52.508;13.454;2023-05-29T00:24:56;5.87;;;3.60;;
6537;SDS011;3302;52.508;13.454;2023-05-29T00:27:22;8.10;;;3.70;;
6537;SDS011;3302;52.508;13.454;2023-05-29T00:29:48;5.67;;;3.80;;
6537;SDS011;3302;52.508;13.454;2023-05-29T00:32:13;6.97;;;3.57;;
6537;SDS011;3302;52.508;13.454;2023-05-29T00:34:39;5.57;;;3.77;;
6537;SDS011;3302;52.508;13.454;2023-05-29T00:37:05;7.37;;;4.03;;
6537;SDS011;3302;52.508;13.454;2023-05-29T00:39:31;7.50;;;4.23;;
6537;SDS011;3302;52.508;13.454;2023-05-29T00:41:57;7.20;;;3.73;;
6537;SDS011;3302;52.508;13.454;2023-05-29T00:44:23;5.90;;;3.37;;
6537;SDS011;3302;52.508;13.454;2023-05-29T00:46:49;7.63;;;4.23;;
6537;SDS011;3302;52.508;13.454;2023-05-29T00:49:18;6.67;;;3.90;;
6537;SDS011;3302;52.508;13.454;2023-05-29T00:51:45;7.83;;;4.10;;
6537;SDS011;3302;52.508;13.454;2023-05-29T00:54:11;4.80;;;3.57;;
6537;SDS011;3302;52.508;13.454;2023-05-29T00:56:39;7.67;;;3.70;;
6537;SDS011;3302;52.508;13.454;2023-05-29T00:59:09;6.33;;;4.00;;
6537;SDS011;3302;52.508;13.454;2023-05-29T01:01:36;9.40;;;3.53;;
6537;SDS011;3302;52.508;13.454;2023-05-29T01:04:02;7.17;;;3.60;;
6537;SDS011;3302;52.508;13.454;2023-05-29T01:06:32;6.67;;;3.33;;
6537;SDS011;3302;52.508;13.454;2023-05-29T01:08:58;4.53;;;3.33;;
6537;SDS011;3302;52.508;13.454;2023-05-29T01:11:27;6.27;;;3.40;;
6537;SDS011;3302;52.508;13.454;2023-05-29T01:14:07;7.60;;;4.00;;
6537;SDS011;3302;52.508;13.454;2023-05-29T01:16:35;6.13;;;3.27;;
6537;SDS011;3302;52.508;13.454;2023-05-29T01:22:05;7.20;;;3.73;;
6537;SDS011;3302;52.508;13.454;2023-05-29T01:25:34;4.73;;;3.07;;
6537;SDS011;3302;52.508;13.454;2023-05-29T01:27:57;8.23;;;4.07;;
6537;SDS011;3302;52.508;13.454;2023-05-29T01:30:27;5.33;;;3.40;;
6537;SDS011;3302;52.508;13.454;2023-05-29T01:32:55;7.30;;;3.00;;
6537;SDS011;3302;52.508;13.454;2023-05-29T01:35:21;5.37;;;3.03;;
6537;SDS011;3302;52.508;13.454;2023-05-29T01:37:47;7.23;;;3.53;;
6537;SDS011;3302;52.508;13.454;2023-05-29T01:40:13;5.67;;;3.03;;
6537;SDS011;3302;52.508;13.454;2023-05-29T01:42:39;7.17;;;2.80;;
6537;SDS011;3302;52.508;13.454;2023-05-29T01:45:05;5.40;;;3.07;;
6537;SDS011;3302;52.508;13.454;2023-05-29T01:47:32;4.60;;;2.90;;
6537;SDS011;3302;52.508;13.454;2023-05-29T01:49:58;7.43;;;3.30;;
6537;SDS011;3302;52.508;13.454;2023-05-29T01:52:25;5.07;;;2.97;;
6537;SDS011;3302;52.508;13.454;2023-05-29T01:54:51;6.97;;;3.30;;
6537;SDS011;3302;52.508;13.454;2023-05-29T01:57:17;5.50;;;3.23;;
6537;SDS011;3302;52.508;13.454;2023-05-29T01:59:43;5.43;;;3.17;;
6537;SDS011;3302;52.508;13.454;2023-05-29T02:02:09;6.87;;;3.70;;
6537;SDS011;3302;52.508;13.454;2023-05-29T02:04:34;9.43;;;4.03;;
6537;SDS011;3302;52.508;13.454;2023-05-29T02:07:00;7.03;;;3.23;;
6537;SDS011;3302;52.508;13.454;2023-05-29T02:09:26;6.73;;;3.73;;
6537;SDS011;3302;52.508;13.454;2023-05-29T02:11:52;6.87;;;3.50;;
6537;SDS011;3302;52.508;13.454;2023-05-29T02:14:18;4.80;;;3.10;;
6537;SDS011;3302;52.508;13.454;2023-05-29T02:16:44;5.67;;;3.57;;
6537;SDS011;3302;52.508;13.454;2023-05-29T02:19:10;6.13;;;3.23;;
6537;SDS011;3302;52.508;13.454;2023-05-29T02:21:39;4.40;;;3.20;;
6537;SDS011;3302;52.508;13.454;2023-05-29T02:24:08;6.73;;;3.60;;
6537;SDS011;3302;52.508;13.454;2023-05-29T02:26:33;6.20;;;3.50;;
6537;SDS011;3302;52.508;13.454;2023-05-29T02:29:02;9.07;;;3.70;;
6537;SDS011;3302;52.508;13.454;2023-05-29T02:31:30;6.97;;;3.43;;
6537;SDS011;3302;52.508;13.454;2023-05-29T02:33:56;7.20;;;3.57;;
6537;SDS011;3302;52.508;13.454;2023-05-29T02:36:22;7.33;;;3.50;;
6537;SDS011;3302;52.508;13.454;2023-05-29T02:38:48;5.50;;;3.43;;
6537;SDS011;3302;52.508;13.454;2023-05-29T02:41:14;7.27;;;3.50;;
6537;SDS011;3302;52.508;13.454;2023-05-29T02:43:39;6.30;;;3.57;;
6537;SDS011;3302;52.508;13.454;2023-05-29T02:46:05;5.57;;;3.57;;
6537;SDS011;3302;52.508;13.454;2023-05-29T02:48:31;5.10;;;3.53;;
6537;SDS011;3302;52.508;13.454;2023-05-29T02:50:57;7.43;;;3.40;;
6537;SDS011;3302;52.508;13.454;2023-05-29T02:53:24;8.37;;;3.73;;
6537;SDS011;3302;52.508;13.454;2023-05-29T02:55:50;5.93;;;3.60;;
6537;SDS011;3302;52.508;13.454;2023-05-29T02:58:16;6.63;;;3.40;;
6537;SDS011;3302;52.508;13.454;2023-05-29T03:00:42;6.87;;;3.80;;
6537;SDS011;3302;52.508;13.454;2023-05-29T03:03:08;4.97;;;3.20;;
6537;SDS011;3302;52.508;13.454;2023-05-29T03:05:34;8.37;;;3.77;;
6537;SDS011;3302;52.508;13.454;2023-05-29T03:08:00;6.63;;;3.60;;
6537;SDS011;3302;52.508;13.454;2023-05-29T03:10:26;6.50;;;3.40;;
6537;SDS011;3302;52.508;13.454;2023-05-29T03:12:51;12.03;;;3.50;;
6537;SDS011;3302;52.508;13.454;2023-05-29T03:15:19;5.63;;;3.53;;
6537;SDS011;3302;52.508;13.454;2023-05-29T03:17:46;7.40;;;3.50;;
6537;SDS011;3302;52.508;13.454;2023-05-29T03:20:11;7.27;;;3.43;;
6537;SDS011;3302;52.508;13.454;2023-05-29T03:22:38;7.77;;;3.70;;
6537;SDS011;3302;52.508;13.454;2023-05-29T03:25:04;5.70;;;3.43;;
6537;SDS011;3302;52.508;13.454;2023-05-29T03:27:31;8.13;;;4.00;;
6537;SDS011;3302;52.508;13.454;2023-05-29T03:29:56;6.07;;;3.67;;
6537;SDS011;3302;52.508;13.454;2023-05-29T03:32:23;5.63;;;3.50;;
6537;SDS011;3302;52.508;13.454;2023-05-29T03:34:48;4.73;;;3.30;;
6537;SDS011;3302;52.508;13.454;2023-05-29T03:37:15;5.30;;;3.80;;
6537;SDS011;3302;52.508;13.454;2023-05-29T03:39:41;6.10;;;3.63;;
6537;SDS011;3302;52.508;13.454;2023-05-29T03:42:06;6.57;;;4.00;;
6537;SDS011;3302;52.508;13.454;2023-05-29T03:44:33;5.43;;;3.57;;
6537;SDS011;3302;52.508;13.454;2023-05-29T03:46:58;6.50;;;3.80;;
6537;SDS011;3302;52.508;13.454;2023-05-29T03:49:24;5.80;;;3.50;;
6537;SDS011;3302;52.508;13.454;2023-05-29T03:51:50;6.43;;;3.47;;
6537;SDS011;3302;52.508;13.454;2023-05-29T03:54:16;6.43;;;3.60;;
6537;SDS011;3302;52.508;13.454;2023-05-29T03:56:42;7.13;;;4.00;;
6537;SDS011;3302;52.508;13.454;2023-05-29T03:59:08;6.27;;;3.60;;
6537;SDS011;3302;52.508;13.454;2023-05-29T04:01:34;4.80;;;3.10;;
6537;SDS011;3302;52.508;13.454;2023-05-29T04:04:01;6.97;;;3.97;;
6537;SDS011;3302;52.508;13.454;2023-05-29T04:06:26;5.77;;;3.67;;
6537;SDS011;3302;52.508;13.454;2023-05-29T04:08:52;4.60;;;3.67;;
6537;SDS011;3302;52.508;13.454;2023-05-29T04:11:20;6.63;;;3.63;;
6537;SDS011;3302;52.508;13.454;2023-05-29T04:13:47;7.57;;;4.27;;
6537;SDS011;3302;52.508;13.454;2023-05-29T04:16:14;7.73;;;3.50;;
6537;SDS011;3302;52.508;13.454;2023-05-29T04:18:40;5.53;;;3.30;;
6537;SDS011;3302;52.508;13.454;2023-05-29T04:21:06;5.80;;;3.40;;
6537;SDS011;3302;52.508;13.454;2023-05-29T04:23:32;5.50;;;3.47;;
6537;SDS011;3302;52.508;13.454;2023-05-29T04:25:58;6.27;;;3.70;;
6537;SDS011;3302;52.508;13.454;2023-05-29T04:28:26;5.90;;;3.30;;
6537;SDS011;3302;52.508;13.454;2023-05-29T04:30:52;6.83;;;3.30;;
6537;SDS011;3302;52.508;13.454;2023-05-29T04:33:18;5.47;;;3.10;;
6537;SDS011;3302;52.508;13.454;2023-05-29T04:35:46;7.30;;;3.90;;
6537;SDS011;3302;52.508;13.454;2023-05-29T04:38:13;5.87;;;3.37;;
6537;SDS011;3302;52.508;13.454;2023-05-29T04:40:39;4.77;;;3.00;;
6537;SDS011;3302;52.508;13.454;2023-05-29T04:43:05;6.10;;;3.13;;
6537;SDS011;3302;52.508;13.454;2023-05-29T04:45:31;6.80;;;3.23;;
6537;SDS011;3302;52.508;13.454;2023-05-29T04:47:57;4.00;;;3.23;;
6537;SDS011;3302;52.508;13.454;2023-05-29T04:50:23;5.80;;;3.30;;
6537;SDS011;3302;52.508;13.454;2023-05-29T04:52:49;5.30;;;3.20;;
6537;SDS011;3302;52.508;13.454;2023-05-29T04:55:15;5.90;;;3.40;;
6537;SDS011;3302;52.508;13.454;2023-05-29T04:57:41;5.77;;;3.60;;
6537;SDS011;3302;52.508;13.454;2023-05-29T05:00:07;4.90;;;3.03;;
6537;SDS011;3302;52.508;13.454;2023-05-29T05:02:41;5.23;;;3.50;;
6537;SDS011;3302;52.508;13.454;2023-05-29T05:05:08;5.70;;;3.00;;
6537;SDS011;3302;52.508;13.454;2023-05-29T05:07:34;4.77;;;3.03;;
6537;SDS011;3302;52.508;13.454;2023-05-29T05:10:00;4.93;;;2.87;;
6537;SDS011;3302;52.508;13.454;2023-05-29T05:12:26;5.67;;;3.50;;
6537;SDS011;3302;52.508;13.454;2023-05-29T05:14:52;4.33;;;3.20;;
6537;SDS011;3302;52.508;13.454;2023-05-29T05:17:18;4.43;;;3.13;;
6537;SDS011;3302;52.508;13.454;2023-05-29T05:19:44;4.60;;;2.97;;
6537;SDS011;3302;52.508;13.454;2023-05-29T05:22:10;4.90;;;3.20;;
6537;SDS011;3302;52.508;13.454;2023-05-29T05:24:35;4.83;;;2.77;;
6537;SDS011;3302;52.508;13.454;2023-05-29T05:27:01;5.70;;;3.27;;
6537;SDS011;3302;52.508;13.454;2023-05-29T05:29:28;4.53;;;2.80;;
6537;SDS011;3302;52.508;13.454;2023-05-29T05:31:54;3.70;;;2.60;;
6537;SDS011;3302;52.508;13.454;2023-05-29T05:34:20;8.20;;;2.90;;
6537;SDS011;3302;52.508;13.454;2023-05-29T05:36:46;4.27;;;2.80;;
6537;SDS011;3302;52.508;13.454;2023-05-29T05:39:12;4.40;;;2.83;;
6537;SDS011;3302;52.508;13.454;2023-05-29T05:41:37;4.73;;;2.80;;
6537;SDS011;3302;52.508;13.454;2023-05-29T05:44:03;5.30;;;3.20;;
6537;SDS011;3302;52.508;13.454;2023-05-29T05:46:29;3.83;;;2.60;;
6537;SDS011;3302;52.508;13.454;2023-05-29T05:48:55;3.10;;;2.70;;
6537;SDS011;3302;52.508;13.454;2023-05-29T05:51:24;3.97;;;3.03;;
6537;SDS011;3302;52.508;13.454;2023-05-29T05:53:50;4.63;;;2.90;;
6537;SDS011;3302;52.508;13.454;2023-05-29T05:56:16;3.70;;;2.57;;
6537;SDS011;3302;52.508;13.454;2023-05-29T05:58:41;3.93;;;2.90;;
6537;SDS011;3302;52.508;13.454;2023-05-29T06:01:07;4.83;;;2.57;;
6537;SDS011;3302;52.508;13.454;2023-05-29T06:03:33;3.93;;;2.50;;
6537;SDS011;3302;52.508;13.454;2023-05-29T06:06:00;4.63;;;2.50;;
6537;SDS011;3302;52.508;13.454;2023-05-29T06:08:26;5.13;;;2.67;;
6537;SDS011;3302;52.508;13.454;2023-05-29T06:10:52;3.60;;;2.40;;
6537;SDS011;3302;52.508;13.454;2023-05-29T06:13:18;3.37;;;2.70;;
6537;SDS011;3302;52.508;13.454;2023-05-29T06:15:44;3.27;;;2.23;;
6537;SDS011;3302;52.508;13.454;2023-05-29T06:18:10;4.53;;;2.60;;
6537;SDS011;3302;52.508;13.454;2023-05-29T06:20:35;4.00;;;2.67;;
6537;SDS011;3302;52.508;13.454;2023-05-29T06:23:01;3.83;;;2.40;;
6537;SDS011;3302;52.508;13.454;2023-05-29T06:25:27;2.93;;;2.20;;
6537;SDS011;3302;52.508;13.454;2023-05-29T06:28:00;3.10;;;2.20;;
6537;SDS011;3302;52.508;13.454;2023-05-29T06:30:27;3.20;;;2.10;;
6537;SDS011;3302;52.508;13.454;2023-05-29T06:32:53;3.80;;;2.70;;
6537;SDS011;3302;52.508;13.454;2023-05-29T06:35:19;3.13;;;2.20;;
6537;SDS011;3302;52.508;13.454;2023-05-29T06:37:45;3.03;;;2.30;;
6537;SDS011;3302;52.508;13.454;2023-05-29T06:40:12;3.23;;;2.20;;
6537;SDS011;3302;52.508;13.454;2023-05-29T06:42:38;3.43;;;2.00;;
6537;SDS011;3302;52.508;13.454;2023-05-29T06:45:04;2.63;;;2.17;;
6537;SDS011;3302;52.508;13.454;2023-05-29T06:47:30;5.53;;;2.27;;
6537;SDS011;3302;52.508;13.454;2023-05-29T06:49:56;3.77;;;2.40;;
6537;SDS011;3302;52.508;13.454;2023-05-29T06:52:22;4.20;;;2.03;;
6537;SDS011;3302;52.508;13.454;2023-05-29T06:54:48;3.93;;;2.30;;
6537;SDS011;3302;52.508;13.454;2023-05-29T06:57:14;7.60;;;2.53;;
6537;SDS011;3302;52.508;13.454;2023-05-29T06:59:40;2.97;;;2.13;;
6537;SDS011;3302;52.508;13.454;2023-05-29T07:02:06;3.30;;;2.27;;
6537;SDS011;3302;52.508;13.454;2023-05-29T07:04:32;4.83;;;2.50;;
6537;SDS011;3302;52.508;13.454;2023-05-29T07:06:57;5.93;;;2.73;;
6537;SDS011;3302;52.508;13.454;2023-05-29T07:09:23;3.53;;;2.13;;
6537;SDS011;3302;52.508;13.454;2023-05-29T07:11:50;7.37;;;2.20;;
6537;SDS011;3302;52.508;13.454;2023-05-29T07:14:16;4.20;;;2.20;;
6537;SDS011;3302;52.508;13.454;2023-05-29T07:16:42;4.97;;;2.20;;
6537;SDS011;3302;52.508;13.454;2023-05-29T07:19:07;4.00;;;2.50;;
6537;SDS011;3302;52.508;13.454;2023-05-29T07:21:33;2.57;;;2.10;;
6537;SDS011;3302;52.508;13.454;2023-05-29T07:23:59;3.30;;;2.10;;
6537;SDS011;3302;52.508;13.454;2023-05-29T07:26:25;3.37;;;2.13;;
6537;SDS011;3302;52.508;13.454;2023-05-29T07:28:51;4.17;;;2.47;;
6537;SDS011;3302;52.508;13.454;2023-05-29T07:31:17;2.57;;;2.00;;
6537;SDS011;3302;52.508;13.454;2023-05-29T07:33:43;4.80;;;2.73;;
6537;SDS011;3302;52.508;13.454;2023-05-29T07:36:09;3.83;;;2.07;;
6537;SDS011;3302;52.508;13.454;2023-05-29T07:38:36;3.63;;;2.23;;
6537;SDS011;3302;52.508;13.454;2023-05-29T07:41:01;3.30;;;2.00;;
6537;SDS011;3302;52.508;13.454;2023-05-29T07:43:27;4.30;;;2.47;;
6537;SDS011;3302;52.508;13.454;2023-05-29T07:45:53;3.23;;;2.03;;
6537;SDS011;3302;52.508;13.454;2023-05-29T07:48:19;2.57;;;1.90;;
6537;SDS011;3302;52.508;13.454;2023-05-29T07:50:45;3.73;;;2.10;;
6537;SDS011;3302;52.508;13.454;2023-05-29T07:53:11;2.07;;;1.53;;
6537;SDS011;3302;52.508;13.454;2023-05-29T07:55:37;3.30;;;2.10;;
6537;SDS011;3302;52.508;13.454;2023-05-29T07:58:03;2.40;;;1.83;;
6537;SDS011;3302;52.508;13.454;2023-05-29T08:00:28;4.13;;;2.10;;
6537;SDS011;3302;52.508;13.454;2023-05-29T08:02:54;3.33;;;2.10;;
6537;SDS011;3302;52.508;13.454;2023-05-29T08:05:22;3.53;;;2.00;;
6537;SDS011;3302;52.508;13.454;2023-05-29T08:07:48;3.43;;;2.10;;
6537;SDS011;3302;52.508;13.454;2023-05-29T08:10:13;3.43;;;1.80;;
6537;SDS011;3302;52.508;13.454;2023-05-29T08:12:40;2.47;;;2.00;;
6537;SDS011;3302;52.508;13.454;2023-05-29T08:15:05;2.30;;;2.07;;
6537;SDS011;3302;52.508;13.454;2023-05-29T08:17:32;2.97;;;2.30;;
6537;SDS011;3302;52.508;13.454;2023-05-29T08:19:58;2.80;;;2.00;;
6537;SDS011;3302;52.508;13.454;2023-05-29T08:22:28;2.83;;;2.27;;
6537;SDS011;3302;52.508;13.454;2023-05-29T08:24:59;5.37;;;2.50;;
6537;SDS011;3302;52.508;13.454;2023-05-29T08:27:25;3.37;;;2.10;;
6537;SDS011;3302;52.508;13.454;2023-05-29T08:29:51;2.27;;;2.03;;
6537;SDS011;3302;52.508;13.454;2023-05-29T08:32:16;2.90;;;2.10;;
6537;SDS011;3302;52.508;13.454;2023-05-29T08:34:42;3.17;;;2.13;;
6537;SDS011;3302;52.508;13.454;2023-05-29T08:37:10;2.93;;;2.33;;
6537;SDS011;3302;52.508;13.454;2023-05-29T08:39:36;4.30;;;2.20;;
6537;SDS011;3302;52.508;13.454;2023-05-29T08:42:07;3.77;;;1.93;;
6537;SDS011;3302;52.508;13.454;2023-05-29T08:44:36;2.80;;;2.40;;
6537;SDS011;3302;52.508;13.454;2023-05-29T08:47:06;2.97;;;2.33;;
6537;SDS011;3302;52.508;13.454;2023-05-29T08:49:34;2.20;;;2.00;;
6537;SDS011;3302;52.508;13.454;2023-05-29T08:52:14;2.63;;;2.03;;
6537;SDS011;3302;52.508;13.454;2023-05-29T08:54:41;3.50;;;2.23;;
6537;SDS011;3302;52.508;13.454;2023-05-29T08:57:07;3.07;;;2.70;;
6537;SDS011;3302;52.508;13.454;2023-05-29T08:59:33;5.13;;;2.60;;
6537;SDS011;3302;52.508;13.454;2023-05-29T09:02:02;3.97;;;2.47;;
6537;SDS011;3302;52.508;13.454;2023-05-29T09:04:28;2.80;;;2.10;;
6537;SDS011;3302;52.508;13.454;2023-05-29T09:06:55;3.37;;;2.03;;
6537;SDS011;3302;52.508;13.454;2023-05-29T09:09:24;3.73;;;2.20;;
6537;SDS011;3302;52.508;13.454;2023-05-29T09:11:52;3.87;;;2.20;;
6537;SDS011;3302;52.508;13.454;2023-05-29T09:17:13;2.93;;;2.10;;
6537;SDS011;3302;52.508;13.454;2023-05-29T09:19:43;3.20;;;2.10;;
6537;SDS011;3302;52.508;13.454;2023-05-29T09:22:13;4.57;;;2.50;;
6537;SDS011;3302;52.508;13.454;2023-05-29T09:24:43;2.97;;;2.40;;
6537;SDS011;3302;52.508;13.454;2023-05-29T09:27:12;3.87;;;2.27;;
6537;SDS011;3302;52.508;13.454;2023-05-29T09:29:39;2.60;;;2.30;;
6537;SDS011;3302;52.508;13.454;2023-05-29T09:32:07;4.93;;;2.30;;
6537;SDS011;3302;52.508;13.454;2023-05-29T09:34:34;3.83;;;2.50;;
6537;SDS011;3302;52.508;13.454;2023-05-29T09:37:00;3.93;;;2.50;;
6537;SDS011;3302;52.508;13.454;2023-05-29T09:42:12;3.60;;;2.53;;
6537;SDS011;3302;52.508;13.454;2023-05-29T09:44:42;4.30;;;2.67;;
6537;SDS011;3302;52.508;13.454;2023-05-29T09:47:11;3.57;;;2.57;;
6537;SDS011;3302;52.508;13.454;2023-05-29T09:49:40;4.37;;;2.53;;
6537;SDS011;3302;52.508;13.454;2023-05-29T09:52:06;3.93;;;2.60;;
6537;SDS011;3302;52.508;13.454;2023-05-29T09:54:34;3.40;;;2.70;;
6537;SDS011;3302;52.508;13.454;2023-05-29T09:57:01;2.77;;;2.37;;
6537;SDS011;3302;52.508;13.454;2023-05-29T09:59:30;3.17;;;2.43;;
6537;SDS011;3302;52.508;13.454;2023-05-29T10:02:00;6.47;;;2.40;;
6537;SDS011;3302;52.508;13.454;2023-05-29T10:04:32;3.33;;;2.33;;
6537;SDS011;3302;52.508;13.454;2023-05-29T10:07:04;4.20;;;2.40;;
6537;SDS011;3302;52.508;13.454;2023-05-29T10:09:41;3.80;;;2.57;;
6537;SDS011;3302;52.508;13.454;2023-05-29T10:12:09;3.00;;;2.70;;
6537;SDS011;3302;52.508;13.454;2023-05-29T10:14:37;4.43;;;2.67;;
6537;SDS011;3302;52.508;13.454;2023-05-29T10:17:06;3.53;;;2.40;;
6537;SDS011;3302;52.508;13.454;2023-05-29T10:19:35;2.87;;;2.43;;
6537;SDS011;3302;52.508;13.454;2023-05-29T10:22:02;3.07;;;2.50;;
6537;SDS011;3302;52.508;13.454;2023-05-29T10:24:29;3.30;;;2.63;;
6537;SDS011;3302;52.508;13.454;2023-05-29T10:27:02;2.87;;;2.10;;
6537;SDS011;3302;52.508;13.454;2023-05-29T10:32:38;4.63;;;2.77;;
6537;SDS011;3302;52.508;13.454;2023-05-29T10:38:03;3.63;;;2.43;;
6537;SDS011;3302;52.508;13.454;2023-05-29T10:40:38;4.03;;;2.70;;
6537;SDS011;3302;52.508;13.454;2023-05-29T10:43:04;3.57;;;2.50;;
6537;SDS011;3302;52.508;13.454;2023-05-29T10:50:38;3.10;;;2.30;;
6537;SDS011;3302;52.508;13.454;2023-05-29T10:53:08;3.53;;;2.37;;
6537;SDS011;3302;52.508;13.454;2023-05-29T10:55:48;4.20;;;2.07;;
6537;SDS011;3302;52.508;13.454;2023-05-29T10:58:18;2.70;;;2.23;;
6537;SDS011;3302;52.508;13.454;2023-05-29T11:00:45;2.77;;;2.10;;
6537;SDS011;3302;52.508;13.454;2023-05-29T11:03:31;2.90;;;2.10;;
6537;SDS011;3302;52.508;13.454;2023-05-29T11:05:58;5.10;;;2.73;;
6537;SDS011;3302;52.508;13.454;2023-05-29T11:11:13;3.37;;;2.23;;
6537;SDS011;3302;52.508;13.454;2023-05-29T11:13:40;3.67;;;2.30;;
6537;SDS011;3302;52.508;13.454;2023-05-29T11:16:19;2.30;;;2.10;;
6537;SDS011;3302;52.508;13.454;2023-05-29T11:18:54;4.13;;;2.80;;
6537;SDS011;3302;52.508;13.454;2023-05-29T11:21:22;3.13;;;2.23;;
6537;SDS011;3302;52.508;13.454;2023-05-29T11:24:07;3.13;;;2.40;;
6537;SDS011;3302;52.508;13.454;2023-05-29T11:26:37;3.50;;;2.43;;
6537;SDS011;3302;52.508;13.454;2023-05-29T11:29:03;2.47;;;2.17;;
6537;SDS011;3302;52.508;13.454;2023-05-29T11:31:34;4.03;;;2.27;;
6537;SDS011;3302;52.508;13.454;2023-05-29T11:34:00;4.27;;;2.80;;
6537;SDS011;3302;52.508;13.454;2023-05-29T11:36:32;3.30;;;2.33;;
6537;SDS011;3302;52.508;13.454;2023-05-29T11:38:59;3.73;;;2.40;;
6537;SDS011;3302;52.508;13.454;2023-05-29T11:41:26;3.70;;;2.77;;
6537;SDS011;3302;52.508;13.454;2023-05-29T11:43:55;3.00;;;2.40;;
6537;SDS011;3302;52.508;13.454;2023-05-29T11:46:26;3.97;;;2.40;;
6537;SDS011;3302;52.508;13.454;2023-05-29T11:48:53;4.37;;;2.40;;
6537;SDS011;3302;52.508;13.454;2023-05-29T11:51:19;3.80;;;2.40;;
6537;SDS011;3302;52.508;13.454;2023-05-29T11:53:46;4.47;;;2.53;;
6537;SDS011;3302;52.508;13.454;2023-05-29T11:56:12;4.23;;;2.30;;
6537;SDS011;3302;52.508;13.454;2023-05-29T11:58:41;5.27;;;2.33;;
6537;SDS011;3302;52.508;13.454;2023-05-29T12:01:08;3.70;;;2.40;;
6537;SDS011;3302;52.508;13.454;2023-05-29T12:03:40;4.43;;;2.97;;
6537;SDS011;3302;52.508;13.454;2023-05-29T12:06:08;3.40;;;2.73;;
6537;SDS011;3302;52.508;13.454;2023-05-29T12:08:35;5.10;;;2.87;;
6537;SDS011;3302;52.508;13.454;2023-05-29T12:11:02;5.27;;;3.37;;
6537;SDS011;3302;52.508;13.454;2023-05-29T12:13:28;3.57;;;2.67;;
6537;SDS011;3302;52.508;13.454;2023-05-29T12:15:56;4.07;;;2.70;;
6537;SDS011;3302;52.508;13.454;2023-05-29T12:18:24;2.80;;;2.17;;
6537;SDS011;3302;52.508;13.454;2023-05-29T12:20:51;3.03;;;2.40;;
6537;SDS011;3302;52.508;13.454;2023-05-29T12:23:22;4.57;;;2.63;;
6537;SDS011;3302;52.508;13.454;2023-05-29T12:25:50;4.97;;;2.63;;
6537;SDS011;3302;52.508;13.454;2023-05-29T12:28:18;4.43;;;2.20;;
6537;SDS011;3302;52.508;13.454;2023-05-29T12:30:44;3.60;;;2.50;;
6537;SDS011;3302;52.508;13.454;2023-05-29T12:33:32;5.60;;;2.30;;
6537;SDS011;3302;52.508;13.454;2023-05-29T12:36:05;3.60;;;2.40;;
6537;SDS011;3302;52.508;13.454;2023-05-29T12:38:32;4.20;;;2.37;;
6537;SDS011;3302;52.508;13.454;2023-05-29T12:40:59;4.60;;;2.70;;
6537;SDS011;3302;52.508;13.454;2023-05-29T12:43:28;4.77;;;2.73;;
6537;SDS011;3302;52.508;13.454;2023-05-29T12:45:54;3.83;;;2.30;;
6537;SDS011;3302;52.508;13.454;2023-05-29T12:48:25;3.50;;;2.57;;
6537;SDS011;3302;52.508;13.454;2023-05-29T12:50:52;3.97;;;2.60;;
6537;SDS011;3302;52.508;13.454;2023-05-29T12:53:18;3.07;;;2.20;;
6537;SDS011;3302;52.508;13.454;2023-05-29T12:55:44;3.60;;;2.40;;
6537;SDS011;3302;52.508;13.454;2023-05-29T12:58:12;5.53;;;2.40;;
6537;SDS011;3302;52.508;13.454;2023-05-29T13:00:42;2.83;;;2.30;;
6537;SDS011;3302;52.508;13.454;2023-05-29T13:03:09;4.07;;;2.50;;
6537;SDS011;3302;52.508;13.454;2023-05-29T13:05:38;4.00;;;2.50;;
6537;SDS011;3302;52.508;13.454;2023-05-29T13:08:04;3.90;;;2.60;;
6537;SDS011;3302;52.508;13.454;2023-05-29T13:10:32;3.43;;;2.20;;
6537;SDS011;3302;52.508;13.454;2023-05-29T13:12:59;2.97;;;2.37;;
6537;SDS011;3302;52.508;13.454;2023-05-29T13:15:25;4.23;;;2.50;;
6537;SDS011;3302;52.508;13.454;2023-05-29T13:17:52;4.70;;;2.60;;
6537;SDS011;3302;52.508;13.454;2023-05-29T13:20:18;4.57;;;2.70;;
6537;SDS011;3302;52.508;13.454;2023-05-29T13:22:45;3.50;;;2.60;;
6537;SDS011;3302;52.508;13.454;2023-05-29T13:25:12;4.13;;;2.77;;
6537;SDS011;3302;52.508;13.454;2023-05-29T13:27:43;3.83;;;2.05;;
6537;SDS011;3302;52.508;13.454;2023-05-29T13:30:11;4.20;;;2.72;;
6537;SDS011;3302;52.508;13.454;2023-05-29T13:32:38;3.27;;;2.30;;
6537;SDS011;3302;52.508;13.454;2023-05-29T13:35:04;4.10;;;2.50;;
6537;SDS011;3302;52.508;13.454;2023-05-29T13:37:30;2.83;;;2.17;;
6537;SDS011;3302;52.508;13.454;2023-05-29T13:39:56;3.53;;;2.13;;
6537;SDS011;3302;52.508;13.454;2023-05-29T13:42:22;3.77;;;2.30;;
6537;SDS011;3302;52.508;13.454;2023-05-29T13:44:48;4.17;;;2.10;;
6537;SDS011;3302;52.508;13.454;2023-05-29T13:47:15;4.27;;;2.77;;
6537;SDS011;3302;52.508;13.454;2023-05-29T13:49:41;4.17;;;2.90;;
6537;SDS011;3302;52.508;13.454;2023-05-29T13:52:08;4.73;;;3.60;;
6537;SDS011;3302;52.508;13.454;2023-05-29T13:54:34;4.53;;;3.45;;
6537;SDS011;3302;52.508;13.454;2023-05-29T13:57:01;3.67;;;2.20;;
6537;SDS011;3302;52.508;13.454;2023-05-29T13:59:28;5.10;;;2.67;;
6537;SDS011;3302;52.508;13.454;2023-05-29T14:01:55;5.93;;;2.90;;
6537;SDS011;3302;52.508;13.454;2023-05-29T14:04:22;5.37;;;2.80;;
6537;SDS011;3302;52.508;13.454;2023-05-29T14:06:48;5.75;;;2.67;;
6537;SDS011;3302;52.508;13.454;2023-05-29T14:09:13;5.90;;;2.97;;
6537;SDS011;3302;52.508;13.454;2023-05-29T14:11:39;5.43;;;2.90;;
6537;SDS011;3302;52.508;13.454;2023-05-29T14:14:06;3.78;;;2.28;;
6537;SDS011;3302;52.508;13.454;2023-05-29T14:16:32;4.35;;;2.90;;
6537;SDS011;3302;52.508;13.454;2023-05-29T14:18:58;3.37;;;2.17;;
6537;SDS011;3302;52.508;13.454;2023-05-29T14:21:25;6.30;;;2.70;;
6537;SDS011;3302;52.508;13.454;2023-05-29T14:23:51;4.93;;;2.33;;
6537;SDS011;3302;52.508;13.454;2023-05-29T14:26:16;3.83;;;2.28;;
6537;SDS011;3302;52.508;13.454;2023-05-29T14:28:42;2.97;;;2.27;;
6537;SDS011;3302;52.508;13.454;2023-05-29T14:31:08;3.40;;;2.40;;
6537;SDS011;3302;52.508;13.454;2023-05-29T14:33:34;4.20;;;2.30;;
6537;SDS011;3302;52.508;13.454;2023-05-29T14:36:01;3.67;;;2.55;;
6537;SDS011;3302;52.508;13.454;2023-05-29T14:38:28;5.77;;;2.43;;
6537;SDS011;3302;52.508;13.454;2023-05-29T14:40:54;4.27;;;2.97;;
6537;SDS011;3302;52.508;13.454;2023-05-29T14:43:19;4.65;;;2.53;;
6537;SDS011;3302;52.508;13.454;2023-05-29T14:45:45;5.40;;;2.30;;
6537;SDS011;3302;52.508;13.454;2023-05-29T14:48:12;5.25;;;2.33;;
6537;SDS011;3302;52.508;13.454;2023-05-29T14:50:38;6.27;;;2.43;;
6537;SDS011;3302;52.508;13.454;2023-05-29T14:53:04;3.87;;;2.80;;
6537;SDS011;3302;52.508;13.454;2023-05-29T14:55:30;3.70;;;2.23;;
6537;SDS011;3302;52.508;13.454;2023-05-29T14:58:02;5.60;;;2.53;;
6537;SDS011;3302;52.508;13.454;2023-05-29T15:00:31;3.93;;;2.53;;
6537;SDS011;3302;52.508;13.454;2023-05-29T15:02:57;3.78;;;2.15;;
6537;SDS011;3302;52.508;13.454;2023-05-29T15:05:25;2.60;;;2.20;;
6537;SDS011;3302;52.508;13.454;2023-05-29T15:07:51;3.17;;;2.10;;
6537;SDS011;3302;52.508;13.454;2023-05-29T15:10:20;4.18;;;2.25;;
6537;SDS011;3302;52.508;13.454;2023-05-29T15:12:46;3.85;;;2.33;;
6537;SDS011;3302;52.508;13.454;2023-05-29T15:15:12;3.85;;;2.38;;
6537;SDS011;3302;52.508;13.454;2023-05-29T15:17:37;3.70;;;2.28;;
6537;SDS011;3302;52.508;13.454;2023-05-29T15:20:05;3.83;;;2.50;;
6537;SDS011;3302;52.508;13.454;2023-05-29T15:22:31;4.07;;;2.22;;